createdAt,value
2019-04-25T00:01:46.335Z,81.70
2019-04-25T00:06:52.315Z,82.00
2019-04-25T00:11:59.694Z,82.00
2019-04-25T00:17:05.683Z,81.80
2019-04-25T00:22:31.648Z,82.10
2019-04-25T00:27:37.199Z,82.40
2019-04-25T00:32:44.086Z,82.90
2019-04-25T00:37:49.865Z,83.10
2019-04-25T00:42:55.422Z,83.60
2019-04-25T00:48:04.335Z,83.90
2019-04-25T00:53:11.292Z,84.20
2019-04-25T00:58:38.801Z,84.10
2019-04-25T01:03:45.303Z,84.40
2019-04-25T01:08:53.241Z,84.50
2019-04-25T01:13:58.120Z,84.70
2019-04-25T01:19:03.596Z,84.80
2019-04-25T01:24:09.161Z,85.10
2019-04-25T01:29:14.992Z,85.10
2019-04-25T01:34:25.855Z,85.50
2019-04-25T01:39:51.045Z,85.60
2019-04-25T01:44:58.004Z,85.60
2019-04-25T01:50:04.054Z,85.70
2019-04-25T01:55:09.786Z,85.80
2019-04-25T02:00:16.972Z,85.70
2019-04-25T02:05:23.788Z,85.30
2019-04-25T02:10:29.347Z,85.20
2019-04-25T02:15:34.922Z,84.80
2019-04-25T02:20:40.333Z,84.60
2019-04-25T02:25:45.769Z,84.70
2019-04-25T02:30:51.262Z,84.40
2019-04-25T02:35:59.364Z,85.30
2019-04-25T02:41:08.283Z,84.60
2019-04-25T02:46:36.847Z,84.60
2019-04-25T02:51:59.557Z,84.60
2019-04-25T02:57:08.180Z,84.70
2019-04-25T03:02:15.395Z,84.20
2019-04-25T03:07:20.933Z,84.20
2019-04-25T03:12:33.032Z,84.00
2019-04-25T03:17:34.236Z,84.20
2019-04-25T03:22:39.823Z,84.20
2019-04-25T03:27:45.233Z,84.10
2019-04-25T03:32:51.610Z,84.20
2019-04-25T03:37:57.211Z,83.80
2019-04-25T03:43:04.723Z,83.80
2019-04-25T03:48:09.813Z,83.40
2019-04-25T03:53:15.392Z,83.50
2019-04-25T03:58:20.939Z,83.40
2019-04-25T04:03:26.343Z,83.30
2019-04-25T04:08:31.732Z,83.00
2019-04-25T04:13:37.165Z,82.90
2019-04-25T04:18:44.412Z,82.70
2019-04-25T04:23:58.546Z,82.50
2019-04-25T04:29:04.702Z,82.30
2019-04-25T04:34:10.625Z,82.20
2019-04-25T04:39:16.801Z,82.10
2019-04-25T04:44:24.129Z,81.90
2019-04-25T04:49:29.817Z,81.50
2019-04-25T04:54:35.471Z,81.50
2019-04-25T04:59:40.905Z,81.10
2019-04-25T05:05:12.031Z,80.70
2019-04-25T05:10:19.777Z,80.60
2019-04-25T05:15:25.508Z,80.10
2019-04-25T05:20:31.038Z,80.00
2019-04-25T05:25:36.605Z,79.60
2019-04-25T05:30:47.355Z,78.90
2019-04-25T05:35:53.911Z,77.80
2019-04-25T05:41:04.041Z,77.00
2019-04-25T05:46:09.543Z,76.10
2019-04-25T05:51:15.862Z,75.00
2019-04-25T05:56:22.444Z,73.80
2019-04-25T06:01:30.093Z,67.70
2019-04-25T06:06:36.808Z,64.40
2019-04-25T06:11:49.932Z,64.20
2019-04-25T06:16:58.230Z,59.20
2019-04-25T06:22:03.712Z,57.80
2019-04-25T06:27:28.482Z,57.60
2019-04-25T06:32:35.370Z,57.10
2019-04-25T06:37:41.089Z,57.60
2019-04-25T06:42:46.828Z,58.70
2019-04-25T06:48:17.257Z,59.00
2019-04-25T06:53:24.735Z,59.60
2019-04-25T06:58:30.161Z,59.40
2019-04-25T07:03:35.830Z,59.10
2019-04-25T07:08:41.271Z,57.30
2019-04-25T07:13:46.847Z,56.20
2019-04-25T07:18:53.416Z,55.40
2019-04-25T07:23:58.901Z,55.40
2019-04-25T07:29:35.718Z,55.10
2019-04-25T07:34:41.199Z,55.30
2019-04-25T07:39:46.630Z,55.10
2019-04-25T07:44:53.465Z,52.20
2019-04-25T07:49:59.326Z,47.30
2019-04-25T07:55:05.072Z,43.30
2019-04-25T08:00:15.013Z,44.90
2019-04-25T08:05:20.530Z,45.60
2019-04-25T08:10:27.885Z,46.20
2019-04-25T08:15:43.849Z,46.40
2019-04-25T08:20:49.302Z,46.90
2019-04-25T08:25:54.777Z,48.40
2019-04-25T08:31:00.268Z,49.30
2019-04-25T08:36:09.117Z,46.40
2019-04-25T08:41:14.027Z,46.10
2019-04-25T08:46:19.863Z,47.10
2019-04-25T08:51:28.687Z,46.60
2019-04-25T08:56:36.472Z,47.40
2019-04-25T09:02:03.825Z,47.70
2019-04-25T09:07:09.390Z,48.60
2019-04-25T09:12:14.968Z,49.30
2019-04-25T09:17:20.598Z,49.70
2019-04-25T09:22:26.041Z,50.10
2019-04-25T09:27:33.330Z,50.50
2019-04-25T09:32:39.877Z,50.60
2019-04-25T09:37:46.169Z,50.40
2019-04-25T09:42:51.740Z,49.80
2019-04-25T09:48:01.178Z,49.30
2019-04-25T09:53:06.683Z,47.60
2019-04-25T09:58:16.068Z,45.90
2019-04-25T10:03:23.352Z,45.10
2019-04-25T10:08:28.966Z,44.20
2019-04-25T10:13:34.422Z,45.00
2019-04-25T10:18:39.877Z,45.10
2019-04-25T10:23:46.741Z,44.70
2019-04-25T10:28:52.260Z,43.60
2019-04-25T10:33:57.703Z,43.10
2019-04-25T10:39:08.649Z,42.50
2019-04-25T10:44:10.554Z,41.60
2019-04-25T10:49:15.998Z,40.40
2019-04-25T10:54:21.531Z,40.50
2019-04-25T10:59:26.973Z,39.30
2019-04-25T11:04:38.131Z,38.30
2019-04-25T11:09:45.570Z,38.50
2019-04-25T11:14:50.940Z,37.30
2019-04-25T11:19:58.220Z,37.20
2019-04-25T11:25:03.679Z,36.60
2019-04-25T11:30:11.580Z,36.40
2019-04-25T11:35:17.198Z,35.70
2019-04-25T11:40:29.411Z,36.00
2019-04-25T11:45:36.016Z,37.10
2019-04-25T11:50:44.103Z,37.10
2019-04-25T11:55:50.109Z,37.10
2019-04-25T12:00:57.934Z,37.40
2019-04-25T12:06:02.970Z,36.90
2019-04-25T12:11:08.454Z,37.30
2019-04-25T12:16:14.405Z,36.60
2019-04-25T12:21:19.959Z,35.40
2019-04-25T12:26:26.347Z,34.40
2019-04-25T12:31:31.893Z,33.70
2019-04-25T12:36:37.450Z,32.80
2019-04-25T12:41:44.154Z,32.40
2019-04-25T12:46:50.898Z,33.00
2019-04-25T12:51:56.723Z,33.30
2019-04-25T12:57:04.035Z,32.40
2019-04-25T13:02:09.519Z,32.60
2019-04-25T13:07:14.957Z,32.30
2019-04-25T13:12:20.845Z,32.30
2019-04-25T13:17:26.276Z,32.70
2019-04-25T13:22:33.100Z,32.90
2019-04-25T13:27:51.390Z,33.40
2019-04-25T13:33:15.831Z,33.20
2019-04-25T13:38:21.401Z,33.20
2019-04-25T13:43:26.954Z,32.10
2019-04-25T13:48:34.351Z,31.50
2019-04-25T13:53:39.744Z,31.50
2019-04-25T13:58:45.193Z,32.10
2019-04-25T14:03:51.111Z,32.00
2019-04-25T14:08:56.881Z,31.60
2019-04-25T14:14:02.455Z,31.50
2019-04-25T14:19:34.811Z,31.40
2019-04-25T14:24:40.386Z,31.70
2019-04-25T14:29:45.949Z,31.80
2019-04-25T14:34:51.461Z,32.20
2019-04-25T14:39:56.879Z,32.30
2019-04-25T14:45:02.335Z,32.50
2019-04-25T14:50:07.841Z,32.90
2019-04-25T14:55:47.150Z,33.00
2019-04-25T15:00:53.068Z,32.90
2019-04-25T15:05:58.513Z,33.10
2019-04-25T15:11:04.217Z,33.20
2019-04-25T15:16:09.740Z,33.20
2019-04-25T15:21:15.563Z,33.20
2019-04-25T15:26:20.977Z,33.00
2019-04-25T15:31:28.168Z,33.20
2019-04-25T15:36:52.622Z,33.50
2019-04-25T15:42:06.282Z,33.90
2019-04-25T15:47:14.662Z,34.40
2019-04-25T15:52:20.136Z,35.50
2019-04-25T15:57:25.566Z,35.30
2019-04-25T16:02:30.997Z,35.40
2019-04-25T16:07:36.429Z,35.40
2019-04-25T16:12:41.940Z,35.60
2019-04-25T16:17:47.435Z,34.70
2019-04-25T16:22:52.886Z,34.90
2019-04-25T16:27:58.315Z,35.20
2019-04-25T16:33:05.280Z,35.80
2019-04-25T16:38:11.477Z,36.40
2019-04-25T16:43:20.575Z,36.90
2019-04-25T16:48:26.220Z,37.50
2019-04-25T16:53:32.577Z,38.00
2019-04-25T16:58:38.618Z,38.60
2019-04-25T17:03:44.234Z,39.30
2019-04-25T17:08:49.856Z,40.20
2019-04-25T17:14:22.958Z,40.80
2019-04-25T17:19:45.736Z,41.30
2019-04-25T17:24:51.383Z,41.80
2019-04-25T17:29:58.363Z,42.40
2019-04-25T17:35:12.465Z,42.60
2019-04-25T17:40:20.919Z,43.50
2019-04-25T17:45:32.130Z,44.00
2019-04-25T17:50:39.643Z,44.30
2019-04-25T17:55:45.159Z,45.10
2019-04-25T18:00:50.661Z,45.60
2019-04-25T18:05:56.054Z,46.10
2019-04-25T18:11:01.492Z,46.50
2019-04-25T18:16:23.799Z,46.90
2019-04-25T18:21:29.347Z,47.20
2019-04-25T18:26:52.054Z,47.50
2019-04-25T18:33:10.482Z,47.80
2019-04-25T18:38:36.023Z,48.20
2019-04-25T18:43:44.887Z,48.80
2019-04-25T18:48:50.364Z,49.00
2019-04-25T18:54:20.757Z,49.10
2019-04-25T18:59:48.314Z,49.60
2019-04-25T19:05:01.143Z,50.20
2019-04-25T19:10:08.609Z,51.00
2019-04-25T19:15:14.062Z,51.60
2019-04-25T19:20:19.561Z,51.80
2019-04-25T19:25:25.089Z,53.10
2019-04-25T19:30:30.735Z,53.30
2019-04-25T19:35:36.664Z,53.70
2019-04-25T19:41:10.484Z,54.00
2019-04-25T19:46:15.974Z,54.20
2019-04-25T19:51:21.561Z,54.50
2019-04-25T19:56:27.082Z,54.90
2019-04-25T20:01:32.510Z,54.90
2019-04-25T20:06:54.941Z,55.10
2019-04-25T20:12:00.664Z,55.00
2019-04-25T20:17:06.238Z,54.80
2019-04-25T20:22:11.677Z,55.00
2019-04-25T20:27:17.092Z,55.50
2019-04-25T20:32:22.549Z,55.70
2019-04-25T20:37:27.969Z,56.20
2019-04-25T20:42:33.609Z,57.10
2019-04-25T20:47:39.006Z,57.60
2019-04-25T20:52:44.435Z,58.10
2019-04-25T20:57:51.170Z,58.80
2019-04-25T21:02:56.645Z,59.20
2019-04-25T21:08:02.202Z,59.80
2019-04-25T21:13:10.830Z,60.20
2019-04-25T21:18:32.106Z,61.00
2019-04-25T21:23:37.569Z,62.30
2019-04-25T21:28:42.975Z,62.20
2019-04-25T21:33:48.466Z,62.70
2019-04-25T21:38:54.153Z,63.20
2019-04-25T21:44:04.831Z,63.50
2019-04-25T21:49:10.699Z,63.90
2019-04-25T21:54:16.117Z,64.30
2019-04-25T21:59:22.017Z,64.60
2019-04-25T22:04:38.191Z,64.90
2019-04-25T22:09:34.800Z,65.20
2019-04-25T22:14:40.476Z,65.60
2019-04-25T22:19:45.972Z,66.00
2019-04-25T22:24:51.792Z,66.40
2019-04-25T22:30:00.394Z,66.90
2019-04-25T22:35:13.090Z,67.10
2019-04-25T22:40:18.559Z,67.20
2019-04-25T22:45:24.745Z,67.90
2019-04-25T22:50:30.445Z,68.30
2019-04-25T22:55:35.913Z,68.80
2019-04-25T23:00:41.429Z,69.20
2019-04-25T23:05:51.648Z,69.70
2019-04-25T23:10:57.455Z,70.00
2019-04-25T23:16:04.128Z,69.90
2019-04-25T23:21:10.421Z,69.60
2019-04-25T23:26:43.767Z,69.00
2019-04-25T23:31:49.375Z,68.90
2019-04-25T23:36:55.135Z,68.80
2019-04-25T23:42:00.835Z,69.00
2019-04-25T23:47:07.354Z,69.20
2019-04-25T23:52:13.562Z,69.30
2019-04-25T23:57:19.113Z,69.50
